Time;durP1;ratioP1;P1;durP2;ratioP2;P2;SDS_P1;SDS_P2;PMS_P1;PMS_P2;Temp;Humidity;BMP_temperature;BMP_pressure;BME280_temperature;BME280_humidity;BME280_pressure;Samples;Min_cycle;Max_cycle;Signal;HPM_P1;HPM_P2
2021/12/09 00:00:28;;;;;;;5.88;1.70;;;;;;;4.23;100.00;96839.69;4923448;29;20082;-85
2021/12/09 00:02:56;;;;;;;4.95;1.20;;;;;;;4.23;100.00;96850.06;4886606;29;20044;-87
2021/12/09 00:05:22;;;;;;;6.63;1.27;;;;;;;4.24;100.00;96862.06;4903194;29;20439;-87
2021/12/09 00:07:51;;;;;;;2.25;1.23;;;;;;;4.28;100.00;96863.22;4889920;29;20110;-86
2021/12/09 00:10:17;;;;;;;4.13;0.77;;;;;;;4.11;100.00;96858.50;4931448;29;20036;-83
2021/12/09 00:12:43;;;;;;;5.60;1.52;;;;;;;3.98;100.00;96876.75;4888474;29;20040;-87
2021/12/09 00:15:09;;;;;;;2.50;0.73;;;;;;;3.74;100.00;96849.69;4920842;29;20035;-84
2021/12/09 00:17:38;;;;;;;1.40;0.80;;;;;;;3.96;100.00;96882.13;4938866;29;20144;-85
2021/12/09 00:20:05;;;;;;;2.50;0.60;;;;;;;3.81;100.00;96879.78;4941560;29;20071;-84
2021/12/09 00:22:30;;;;;;;2.65;0.77;;;;;;;3.56;100.00;96872.69;4907703;29;20044;-85
2021/12/09 00:24:56;;;;;;;0.50;0.40;;;;;;;3.43;100.00;96880.47;4923714;29;20047;-85
2021/12/09 00:27:23;;;;;;;1.35;0.63;;;;;;;3.37;100.00;96889.06;4939383;29;20568;-85
2021/12/09 00:29:48;;;;;;;1.13;0.60;;;;;;;3.33;100.00;96867.09;4924423;29;20031;-86
2021/12/09 00:32:14;;;;;;;0.55;0.30;;;;;;;3.30;100.00;96878.69;4939708;29;20375;-86
2021/12/09 00:34:42;;;;;;;1.50;0.50;;;;;;;3.23;100.00;96852.78;4907139;29;20062;-84
2021/12/09 00:37:34;;;;;;;1.65;0.50;;;;;;;3.04;100.00;96833.63;4922200;29;20107;-87
2021/12/09 00:40:00;;;;;;;0.50;0.40;;;;;;;3.04;100.00;96858.78;4910261;29;20036;-88
2021/12/09 00:42:26;;;;;;;2.80;0.40;;;;;;;3.21;100.00;96891.06;4894070;29;20032;-87
2021/12/09 00:44:54;;;;;;;0.75;0.47;;;;;;;3.03;100.00;96883.09;4914926;29;20040;-85
2021/12/09 00:47:21;;;;;;;1.88;0.43;;;;;;;3.08;100.00;96885.88;4894251;29;20399;-89
2021/12/09 00:49:50;;;;;;;0.55;0.50;;;;;;;2.98;100.00;96894.88;4923376;29;20028;-87
2021/12/09 00:52:16;;;;;;;0.70;0.47;;;;;;;3.05;100.00;96901.84;4906518;29;20486;-87
2021/12/09 00:54:42;;;;;;;0.98;0.60;;;;;;;3.23;100.00;96915.00;4900853;29;20473;-88
2021/12/09 00:57:11;;;;;;;0.50;0.50;;;;;;;3.35;100.00;96922.19;4905967;29;20111;-85
2021/12/09 00:59:37;;;;;;;0.82;0.60;;;;;;;3.24;100.00;96901.03;4899531;29;20505;-88
2021/12/09 01:02:03;;;;;;;0.60;0.60;;;;;;;3.40;100.00;96943.13;4903150;29;20040;-89
2021/12/09 01:04:29;;;;;;;2.75;0.90;;;;;;;3.28;100.00;96937.75;4925235;29;20036;-90
2021/12/09 01:06:55;;;;;;;4.18;0.70;;;;;;;3.18;100.00;96926.97;4899475;29;20401;-89
2021/12/09 01:09:21;;;;;;;4.75;1.08;;;;;;;3.30;100.00;96951.31;4916380;29;20115;-86
2021/12/09 01:11:47;;;;;;;4.38;1.00;;;;;;;3.25;100.00;96932.97;4899222;29;20411;-90
2021/12/09 01:14:13;;;;;;;3.97;1.20;;;;;;;3.37;100.00;96946.13;4928284;29;20032;-88
2021/12/09 01:16:38;;;;;;;4.55;1.50;;;;;;;3.25;100.00;96907.81;4914317;29;20043;-89
2021/12/09 01:19:05;;;;;;;3.25;1.35;;;;;;;3.53;100.00;96953.47;4913673;29;20372;-87
2021/12/09 01:21:30;;;;;;;4.43;2.25;;;;;;;3.51;100.00;96949.50;4910560;29;20584;-87
2021/12/09 01:23:56;;;;;;;2.38;1.20;;;;;;;3.56;100.00;96937.53;4896975;29;20063;-88
2021/12/09 01:26:23;;;;;;;4.40;1.10;;;;;;;3.57;100.00;96941.72;4896795;29;20039;-88
2021/12/09 01:28:55;;;;;;;3.97;0.93;;;;;;;3.70;100.00;96948.69;4916007;29;20475;-89
2021/12/09 01:31:25;;;;;;;5.10;1.23;;;;;;;3.92;100.00;96973.59;4895678;29;20039;-87
2021/12/09 01:33:52;;;;;;;3.58;1.35;;;;;;;3.71;100.00;96959.84;4925226;29;20099;-88
2021/12/09 01:36:19;;;;;;;3.20;1.10;;;;;;;3.66;100.00;96955.28;4902505;29;20036;-87
2021/12/09 01:38:45;;;;;;;6.63;1.20;;;;;;;3.80;100.00;96982.00;4897517;29;20051;-89
2021/12/09 01:41:10;;;;;;;7.38;1.83;;;;;;;3.80;100.00;96987.19;4915591;29;20036;-88
2021/12/09 01:43:37;;;;;;;5.35;1.48;;;;;;;3.86;100.00;96985.59;4928068;29;20056;-86
2021/12/09 01:46:09;;;;;;;7.22;1.60;;;;;;;3.88;100.00;97000.94;4902316;29;20026;-88
2021/12/09 01:48:37;;;;;;;5.78;2.00;;;;;;;3.91;100.00;96984.97;4906910;29;20091;-87
2021/12/09 01:51:05;;;;;;;10.07;2.47;;;;;;;3.81;100.00;96962.84;4911339;29;20490;-87
2021/12/09 01:53:31;;;;;;;12.20;2.58;;;;;;;3.92;100.00;96981.38;4903408;29;20040;-88
2021/12/09 01:56:04;;;;;;;9.02;2.30;;;;;;;3.60;100.00;96939.72;4904210;29;20067;-88
2021/12/09 01:58:30;;;;;;;8.38;2.08;;;;;;;3.92;100.00;96989.97;4919628;29;20079;-89
2021/12/09 02:00:56;;;;;;;6.57;1.85;;;;;;;3.84;100.00;96992.78;4910993;29;20123;-88
2021/12/09 02:03:23;;;;;;;6.13;1.80;;;;;;;3.86;100.00;97014.94;4905157;29;20028;-87
2021/12/09 02:05:49;;;;;;;7.85;2.10;;;;;;;3.82;100.00;97003.38;4920413;29;20383;-88
2021/12/09 02:08:16;;;;;;;7.45;2.05;;;;;;;3.86;100.00;97011.56;4914356;29;20035;-87
2021/12/09 02:10:45;;;;;;;11.93;2.60;;;;;;;3.81;100.00;97016.53;4915625;29;20062;-91
2021/12/09 02:13:11;;;;;;;10.73;2.10;;;;;;;3.84;100.00;97003.97;4934014;29;20115;-89
2021/12/09 02:15:38;;;;;;;10.02;2.35;;;;;;;3.79;100.00;96995.97;4923949;29;20036;-88
2021/12/09 02:18:07;;;;;;;7.68;2.70;;;;;;;3.90;100.00;97017.13;4922385;29;20031;-89
2021/12/09 02:20:35;;;;;;;8.40;2.25;;;;;;;3.96;100.00;97005.94;4931081;29;20040;-86
2021/12/09 02:23:07;;;;;;;15.60;2.47;;;;;;;4.14;100.00;97000.94;4915388;29;20118;-88
2021/12/09 02:25:33;;;;;;;15.15;2.88;;;;;;;4.30;100.00;97017.03;4917030;29;20032;-89
2021/12/09 02:27:59;;;;;;;18.52;3.80;;;;;;;4.46;100.00;97028.81;4903002;29;20072;-86
2021/12/09 02:30:24;;;;;;;8.68;2.53;;;;;;;4.26;100.00;97008.06;4900589;29;20088;-90
2021/12/09 02:32:50;;;;;;;15.25;3.55;;;;;;;4.29;100.00;97010.25;4918400;29;20083;-89
2021/12/09 02:35:17;;;;;;;15.32;2.67;;;;;;;4.28;100.00;97024.25;4932323;29;20087;-87
2021/12/09 02:37:44;;;;;;;12.98;2.70;;;;;;;4.06;100.00;96990.75;4909186;29;20513;-90
2021/12/09 02:40:12;;;;;;;11.93;2.95;;;;;;;4.11;100.00;97009.09;4911971;29;20443;-87
2021/12/09 02:42:38;;;;;;;13.55;3.67;;;;;;;4.25;100.00;97037.63;4919954;29;20044;-90
2021/12/09 02:45:08;;;;;;;14.93;2.63;;;;;;;4.09;100.00;97026.69;4910362;29;20032;-88
2021/12/09 02:47:34;;;;;;;11.43;2.30;;;;;;;4.16;100.00;97018.88;4911737;29;20047;-91
2021/12/09 02:50:00;;;;;;;20.20;4.00;;;;;;;4.16;100.00;97037.06;4907006;29;20042;-87
2021/12/09 02:52:27;;;;;;;18.02;3.40;;;;;;;4.14;100.00;97032.09;4912937;29;20039;-90
2021/12/09 02:54:53;;;;;;;10.07;2.78;;;;;;;4.09;100.00;97051.84;4922783;29;20040;-87
2021/12/09 02:57:19;;;;;;;12.68;2.70;;;;;;;4.00;100.00;97040.88;4925542;29;20062;-89
2021/12/09 02:59:45;;;;;;;16.17;2.97;;;;;;;3.98;100.00;97040.28;4923526;29;20056;-89
2021/12/09 03:02:11;;;;;;;19.33;3.28;;;;;;;4.03;100.00;97048.25;4902585;29;20114;-89
2021/12/09 03:04:47;;;;;;;17.60;2.70;;;;;;;4.12;100.00;97062.63;4892510;29;20036;-87
2021/12/09 03:07:26;;;;;;;15.25;2.85;;;;;;;3.98;100.00;97040.28;4912408;29;20039;-87
2021/12/09 03:09:59;;;;;;;10.40;2.78;;;;;;;4.06;100.00;97068.63;4934019;29;20119;-88
2021/12/09 03:12:32;;;;;;;13.30;2.28;;;;;;;3.90;100.00;97045.66;4896985;29;20064;-88
2021/12/09 03:14:59;;;;;;;17.48;3.33;;;;;;;3.86;100.00;97053.88;4910151;29;20032;-85
2021/12/09 03:17:25;;;;;;;17.83;2.40;;;;;;;3.99;100.00;97063.44;4908395;29;20039;-87
2021/12/09 03:19:51;;;;;;;18.15;3.35;;;;;;;4.04;100.00;97070.63;4915354;29;20038;-89
2021/12/09 03:22:17;;;;;;;9.32;2.33;;;;;;;4.05;100.00;97072.22;4930147;29;20043;-88
2021/12/09 03:24:44;;;;;;;12.30;2.83;;;;;;;4.08;100.00;97087.41;4930085;29;20031;-88
2021/12/09 03:27:10;;;;;;;16.08;2.97;;;;;;;4.24;100.00;97090.59;4897317;29;20486;-87
2021/12/09 03:29:36;;;;;;;15.00;3.22;;;;;;;4.23;100.00;97083.78;4912764;29;20434;-87
2021/12/09 03:32:06;;;;;;;12.23;3.20;;;;;;;4.37;100.00;97097.56;4907332;29;20058;-87
2021/12/09 03:34:34;;;;;;;14.00;3.33;;;;;;;4.37;100.00;97085.38;4900517;29;20039;-89
2021/12/09 03:37:04;;;;;;;19.65;3.47;;;;;;;4.52;100.00;97085.13;4914456;29;20059;-89
2021/12/09 03:39:34;;;;;;;12.60;3.15;;;;;;;4.62;100.00;97092.50;4916165;29;20032;-88
2021/12/09 03:42:01;;;;;;;13.32;3.03;;;;;;;4.48;100.00;97077.94;4916662;29;20122;-86
2021/12/09 03:44:28;;;;;;;11.68;3.40;;;;;;;4.53;100.00;97076.34;4903433;29;20039;-89
2021/12/09 03:46:57;;;;;;;15.13;3.40;;;;;;;4.44;100.00;97054.19;4908827;29;20032;-86
2021/12/09 03:49:24;;;;;;;16.20;3.55;;;;;;;4.51;100.00;97074.94;4910848;29;20073;-88
2021/12/09 03:51:52;;;;;;;19.63;3.25;;;;;;;4.39;100.00;97065.19;4902827;29;20043;-87
2021/12/09 03:54:19;;;;;;;13.48;2.70;;;;;;;4.49;100.00;97089.94;4926319;29;20498;-86
2021/12/09 03:56:44;;;;;;;17.15;3.13;;;;;;;4.41;100.00;97086.56;4895701;29;20147;-88
2021/12/09 03:59:11;;;;;;;12.48;3.45;;;;;;;4.55;100.00;97109.94;4896339;29;20024;-85
2021/12/09 04:01:46;;;;;;;11.95;3.03;;;;;;;4.48;100.00;97080.53;4895691;29;20034;-86
2021/12/09 04:04:14;;;;;;;16.55;3.30;;;;;;;4.56;100.00;97099.31;4914985;29;20134;-86
2021/12/09 04:06:41;;;;;;;8.77;2.50;;;;;;;4.49;100.00;97095.13;4897920;29;20036;-86
2021/12/09 04:09:08;;;;;;;14.95;2.80;;;;;;;4.55;100.00;97107.34;4896255;29;20462;-84
2021/12/09 04:11:35;;;;;;;16.98;2.88;;;;;;;4.51;100.00;97113.91;4896772;29;20032;-87
2021/12/09 04:14:01;;;;;;;13.25;2.70;;;;;;;4.55;100.00;97120.31;4900444;29;20024;-87
2021/12/09 04:16:27;;;;;;;10.77;3.05;;;;;;;4.66;100.00;97135.28;4928167;29;20446;-88
2021/12/09 04:18:53;;;;;;;15.95;3.00;;;;;;;4.55;100.00;97126.31;4915594;29;20479;-86
2021/12/09 04:21:18;;;;;;;13.52;2.70;;;;;;;4.71;100.00;97145.84;4928206;29;20039;-88
2021/12/09 04:23:44;;;;;;;10.60;1.80;;;;;;;4.63;100.00;97129.69;4904790;29;20099;-88
2021/12/09 04:26:10;;;;;;;6.18;1.65;;;;;;;4.53;100.00;97135.31;4898197;29;20039;-89
2021/12/09 04:28:38;;;;;;;8.48;1.75;;;;;;;4.58;100.00;97153.69;4916490;29;20145;-86
2021/12/09 04:31:04;;;;;;;7.57;2.65;;;;;;;4.52;100.00;97149.28;4926733;29;20060;-86
2021/12/09 04:33:30;;;;;;;6.50;1.83;;;;;;;4.56;100.00;97163.50;4922252;29;20039;-88
2021/12/09 04:35:58;;;;;;;8.77;2.20;;;;;;;4.49;100.00;97154.88;4914276;29;20035;-87
2021/12/09 04:38:24;;;;;;;9.55;2.00;;;;;;;4.70;100.00;97190.25;4909529;29;20561;-88
2021/12/09 04:40:49;;;;;;;10.02;2.08;;;;;;;4.69;100.00;97210.22;4896837;29;20042;-86
2021/12/09 04:43:16;;;;;;;14.25;2.53;;;;;;;4.72;100.00;97203.84;4911005;29;20036;-86
2021/12/09 04:45:42;;;;;;;12.80;2.17;;;;;;;4.69;100.00;97210.22;4912959;29;20115;-87
2021/12/09 04:48:08;;;;;;;9.80;1.88;;;;;;;4.71;100.00;97205.63;4928085;29;20063;-86
2021/12/09 04:50:36;;;;;;;10.75;2.28;;;;;;;4.53;100.00;97177.69;4903213;29;20035;-86
2021/12/09 04:53:03;;;;;;;4.95;1.40;;;;;;;4.58;100.00;97200.47;4917580;29;20032;-88
2021/12/09 04:55:32;;;;;;;6.60;1.50;;;;;;;4.49;100.00;97204.25;4897012;29;20032;-88
2021/12/09 04:57:58;;;;;;;7.32;1.60;;;;;;;4.52;100.00;97198.66;4899323;29;20036;-88
2021/12/09 05:00:27;;;;;;;7.72;1.52;;;;;;;4.59;100.00;97217.66;4929595;29;20024;-86
2021/12/09 05:05:24;;;;;;;5.05;1.42;;;;;;;4.72;100.00;97232.44;4921642;29;20042;-85
2021/12/09 05:07:50;;;;;;;6.45;1.90;;;;;;;4.74;100.00;97232.25;4936315;29;20088;-86
2021/12/09 05:10:16;;;;;;;12.65;2.15;;;;;;;4.57;100.00;97224.84;4936605;29;20020;-87
2021/12/09 05:12:42;;;;;;;5.05;1.52;;;;;;;4.54;100.00;97220.84;4915128;29;20115;-85
2021/12/09 05:15:09;;;;;;;6.35;1.40;;;;;;;4.53;100.00;97239.25;4915984;29;20538;-88
2021/12/09 05:17:35;;;;;;;4.82;1.02;;;;;;;4.37;100.00;97236.03;4914991;29;20037;-87
2021/12/09 05:20:03;;;;;;;1.25;0.63;;;;;;;4.32;100.00;97238.41;4917477;29;20070;-86
2021/12/09 05:22:28;;;;;;;4.10;1.08;;;;;;;4.32;100.00;97266.97;4900260;29;20035;-87
2021/12/09 05:24:54;;;;;;;3.33;0.63;;;;;;;4.21;100.00;97241.63;4913625;29;20032;-87
2021/12/09 05:27:20;;;;;;;3.03;0.80;;;;;;;3.98;100.00;97222.78;4917855;29;20434;-85
2021/12/09 05:29:54;;;;;;;4.50;0.90;;;;;;;4.07;100.00;97246.00;4912303;29;20031;-88
2021/12/09 05:32:20;;;;;;;5.43;0.90;;;;;;;3.95;100.00;97237.97;4933569;29;20443;-86
2021/12/09 05:34:49;;;;;;;3.58;0.95;;;;;;;3.89;100.00;97229.19;4914045;29;20048;-86
2021/12/09 05:37:20;;;;;;;4.45;1.13;;;;;;;4.05;100.00;97242.78;4915092;29;20039;-87
2021/12/09 05:39:47;;;;;;;3.67;1.45;;;;;;;4.09;100.00;97249.19;4919856;29;20110;-88
2021/12/09 05:42:15;;;;;;;2.17;1.25;;;;;;;4.20;100.00;97255.59;4899257;29;20064;-89
2021/12/09 05:44:41;;;;;;;3.72;1.30;;;;;;;4.28;100.00;97258.00;4896687;29;20036;-89
2021/12/09 05:47:08;;;;;;;5.32;1.48;;;;;;;4.40;100.00;97253.00;4914327;29;20030;-86
2021/12/09 05:49:39;;;;;;;12.23;2.67;;;;;;;4.54;100.00;97246.03;4915267;29;20027;-88
2021/12/09 05:52:06;;;;;;;17.95;3.05;;;;;;;4.49;100.00;97228.44;4907184;29;20119;-85
2021/12/09 05:54:32;;;;;;;22.23;4.22;;;;;;;4.53;100.00;97234.06;4906623;29;20542;-88
2021/12/09 05:56:58;;;;;;;19.55;3.63;;;;;;;4.53;100.00;97234.06;4901942;29;20032;-90
2021/12/09 05:59:25;;;;;;;22.27;3.80;;;;;;;4.53;100.00;97227.03;4896714;29;20451;-88
2021/12/09 06:01:54;;;;;;;14.45;3.88;;;;;;;4.61;100.00;97236.44;4907693;29;20028;-87
2021/12/09 06:04:21;;;;;;;19.00;3.72;;;;;;;4.51;100.00;97217.84;4912965;29;20055;-88
2021/12/09 06:06:48;;;;;;;12.75;3.03;;;;;;;4.70;100.00;97250.81;4904590;29;20027;-88
2021/12/09 06:09:14;;;;;;;20.42;3.33;;;;;;;4.67;100.00;97246.03;4918802;29;20023;-86
2021/12/09 06:11:43;;;;;;;20.27;4.05;;;;;;;4.56;100.00;97231.06;4934556;29;20052;-86
2021/12/09 06:14:09;;;;;;;22.08;3.70;;;;;;;4.59;100.00;97241.03;4911390;29;20046;-87
2021/12/09 06:16:35;;;;;;;15.50;3.65;;;;;;;4.45;100.00;97213.44;4900014;29;20036;-86
2021/12/09 06:19:01;;;;;;;25.02;3.88;;;;;;;4.48;100.00;97210.44;4914607;29;20055;-88
2021/12/09 06:21:28;;;;;;;19.67;3.38;;;;;;;4.45;100.00;97205.66;4930675;29;20027;-87
2021/12/09 06:23:55;;;;;;;22.35;4.57;;;;;;;4.38;100.00;97210.84;4929082;29;20064;-86
2021/12/09 06:26:21;;;;;;;17.63;3.58;;;;;;;4.46;100.00;97230.63;4933229;29;20501;-86
2021/12/09 06:28:47;;;;;;;19.70;3.85;;;;;;;4.49;100.00;97238.03;4902592;29;20063;-87
2021/12/09 06:31:13;;;;;;;23.42;3.60;;;;;;;4.38;100.00;97235.03;4899748;29;20031;-87
2021/12/09 06:33:38;;;;;;;18.42;3.58;;;;;;;4.51;100.00;97241.22;4893151;29;20056;-87
2021/12/09 06:36:05;;;;;;;18.48;3.10;;;;;;;4.46;100.00;97235.84;4898466;29;20375;-88
2021/12/09 06:38:31;;;;;;;19.45;4.18;;;;;;;4.46;100.00;97254.03;4905388;29;20514;-88
2021/12/09 06:40:56;;;;;;;21.70;3.38;;;;;;;4.43;100.00;97240.44;4915552;29;20043;-89
2021/12/09 06:43:22;;;;;;;15.77;4.03;;;;;;;4.48;100.00;97270.22;4901638;29;20028;-88
2021/12/09 06:45:51;;;;;;;22.80;3.22;;;;;;;4.56;100.00;97264.84;4896776;29;20032;-87
2021/12/09 06:48:17;;;;;;;10.68;2.90;;;;;;;4.45;100.00;97268.81;4918788;29;20039;-86
2021/12/09 06:50:42;;;;;;;21.75;3.97;;;;;;;4.43;100.00;97266.41;4916724;29;20028;-85
2021/12/09 06:53:09;;;;;;;21.27;3.28;;;;;;;4.31;100.00;97262.78;4911233;29;20028;-85
2021/12/09 06:55:37;;;;;;;14.95;3.35;;;;;;;4.37;100.00;97284.59;4895962;29;20043;-87
2021/12/09 06:58:03;;;;;;;21.48;4.07;;;;;;;4.31;100.00;97275.00;4910613;29;20071;-88
2021/12/09 07:00:31;;;;;;;22.08;3.70;;;;;;;4.47;100.00;97295.41;4912593;29;20051;-88
2021/12/09 07:02:57;;;;;;;21.10;3.60;;;;;;;4.48;100.00;97298.78;4917121;29;20032;-88
2021/12/09 07:05:25;;;;;;;23.02;4.00;;;;;;;4.59;100.00;97300.81;4899865;29;20032;-87
2021/12/09 07:07:51;;;;;;;21.98;4.55;;;;;;;4.67;100.00;97308.41;4900579;29;20039;-86
2021/12/09 07:10:20;;;;;;;25.50;4.13;;;;;;;4.76;100.00;97326.41;4915376;29;20028;-91
2021/12/09 07:12:47;;;;;;;21.55;4.22;;;;;;;4.91;100.00;97308.00;4912391;29;20032;-89
2021/12/09 07:15:19;;;;;;;25.67;4.38;;;;;;;4.83;100.00;97312.41;4919658;29;20032;-89
2021/12/09 07:17:49;;;;;;;16.60;3.97;;;;;;;4.84;100.00;97314.03;4894184;29;20048;-90
2021/12/09 07:20:18;;;;;;;20.80;3.95;;;;;;;4.75;100.00;97317.00;4902515;29;20040;-90
2021/12/09 07:22:45;;;;;;;23.35;4.13;;;;;;;4.93;100.00;97332.00;4912053;29;20042;-91
2021/12/09 07:25:11;;;;;;;22.52;4.43;;;;;;;4.75;100.00;97325.59;4911917;29;20051;-89
2021/12/09 07:27:37;;;;;;;21.45;4.35;;;;;;;4.81;100.00;97329.22;4918466;29;20059;-89
2021/12/09 07:30:25;;;;;;;18.65;3.30;;;;;;;5.09;100.00;97356.78;4910122;29;20127;-89
2021/12/09 07:33:43;;;;;;;18.13;3.42;;;;;;;5.10;100.00;97368.81;4905460;29;20391;-89
2021/12/09 07:36:09;;;;;;;14.05;2.80;;;;;;;4.98;100.00;97333.00;4889417;29;20028;-87
2021/12/09 07:38:35;;;;;;;11.35;3.50;;;;;;;5.02;100.00;97353.41;4888575;29;20032;-88
2021/12/09 07:41:04;;;;;;;18.38;3.67;;;;;;;5.12;100.00;97346.03;4890127;29;20040;-89
2021/12/09 07:43:29;;;;;;;21.13;4.07;;;;;;;4.96;100.00;97322.00;4908103;29;20039;-89
2021/12/09 07:45:55;;;;;;;18.00;3.40;;;;;;;4.92;100.00;97328.63;4908401;29;20040;-89
2021/12/09 07:48:29;;;;;;;19.88;3.30;;;;;;;4.88;100.00;97324.00;4909832;29;20487;-90
2021/12/09 07:50:55;;;;;;;23.83;3.63;;;;;;;5.05;100.00;97342.59;4891774;29;20487;-84
2021/12/09 07:53:24;;;;;;;22.35;3.42;;;;;;;5.14;100.00;97364.81;4886403;29;20032;-85
2021/12/09 07:55:51;;;;;;;21.00;3.85;;;;;;;5.19;100.00;97383.22;4918093;29;20058;-85
2021/12/09 07:58:20;;;;;;;21.83;3.65;;;;;;;4.95;100.00;97341.22;4883974;29;20027;-82
2021/12/09 08:00:49;;;;;;;19.83;4.00;;;;;;;5.14;100.00;97368.22;4903611;29;20039;-83
2021/12/09 08:03:15;;;;;;;18.58;3.90;;;;;;;5.18;100.00;97365.19;4917690;29;20051;-85
2021/12/09 08:05:45;;;;;;;15.32;5.05;;;;;;;5.05;100.00;97337.41;4901990;29;20119;-81
2021/12/09 08:08:11;;;;;;;29.75;4.88;;;;;;;5.14;100.00;97354.41;4905292;29;20036;-85
2021/12/09 08:10:43;;;;;;;21.88;4.60;;;;;;;5.14;100.00;97344.00;4903436;29;20075;-84
2021/12/09 08:13:09;;;;;;;20.23;4.47;;;;;;;5.05;100.00;97340.81;4918094;29;20036;-82
2021/12/09 08:15:48;;;;;;;16.67;4.32;;;;;;;4.93;100.00;97314.63;4918518;29;20063;-83
2021/12/09 08:20:48;;;;;;;13.93;4.20;;;;;;;4.80;100.00;97312.78;4938359;29;20125;-83
2021/12/09 08:23:15;;;;;;;20.48;4.60;;;;;;;4.84;100.00;97340.00;4913856;29;20047;-81
2021/12/09 08:25:41;;;;;;;27.60;5.88;;;;;;;4.81;100.00;97345.59;4933641;29;20114;-84
2021/12/09 08:28:07;;;;;;;17.63;4.40;;;;;;;4.96;100.00;97358.41;4936601;29;20030;-80
2021/12/09 08:30:34;;;;;;;27.23;6.57;;;;;;;4.88;100.00;97345.59;4917247;29;20024;-82
2021/12/09 08:33:04;;;;;;;21.35;4.93;;;;;;;4.85;100.00;97343.41;4901941;29;20056;-83
2021/12/09 08:35:29;;;;;;;21.83;5.50;;;;;;;4.88;100.00;97371.59;4916946;29;21180;-81
2021/12/09 08:37:57;;;;;;;20.25;5.28;;;;;;;4.89;100.00;97368.00;4918406;29;20060;-83
2021/12/09 08:40:23;;;;;;;24.60;5.30;;;;;;;4.95;100.00;97377.63;4914644;29;20036;-82
2021/12/09 08:42:50;;;;;;;31.67;5.97;;;;;;;5.12;100.00;97382.44;4932941;29;20044;-83
2021/12/09 08:45:24;;;;;;;29.83;6.15;;;;;;;5.18;100.00;97392.03;4930675;29;20036;-81
2021/12/09 08:47:50;;;;;;;31.42;7.00;;;;;;;5.29;100.00;97383.59;4918116;29;20490;-82
2021/12/09 08:50:20;;;;;;;23.55;7.38;;;;;;;5.35;100.00;97392.41;4931982;29;20107;-82
2021/12/09 08:52:54;;;;;;;31.15;6.50;;;;;;;5.32;100.00;97386.81;4918341;29;20043;-82
2021/12/09 08:55:21;;;;;;;;;;;;;;;5.41;100.00;97385.59;4905975;29;20036;-81
2021/12/09 08:57:50;;;;;;;15.95;4.82;;;;;;;5.26;100.00;97378.03;4919213;29;19919;-81
2021/12/09 09:00:19;;;;;;;11.02;4.45;;;;;;;5.39;100.00;97392.81;4931899;29;20487;-82
2021/12/09 09:02:49;;;;;;;17.20;5.63;;;;;;;5.25;100.00;97398.00;4930183;29;20032;-79
2021/12/09 09:05:16;;;;;;;12.98;5.65;;;;;;;5.28;100.00;97374.19;4932354;29;20032;-82
2021/12/09 09:07:52;;;;;;;22.65;8.52;;;;;;;5.39;100.00;97382.41;4930165;29;20032;-80
2021/12/09 09:10:20;;;;;;;18.38;8.55;;;;;;;5.52;100.00;97392.81;4896451;29;20090;-82
2021/12/09 09:12:47;;;;;;;21.02;6.75;;;;;;;5.59;100.00;97387.56;4898459;29;20043;-81
2021/12/09 09:15:15;;;;;;;15.93;4.95;;;;;;;5.65;100.00;97397.19;4897010;29;20495;-82
2021/12/09 09:17:42;;;;;;;11.52;3.47;;;;;;;5.61;100.00;97390.78;4897976;29;20035;-83
2021/12/09 09:20:10;;;;;;;13.40;3.58;;;;;;;5.57;100.00;97385.19;4914837;29;20487;-84
2021/12/09 09:22:38;;;;;;;15.48;3.80;;;;;;;5.54;100.00;97377.78;4900351;29;20078;-82
2021/12/09 09:25:06;;;;;;;20.42;5.25;;;;;;;5.57;100.00;97368.75;4900071;29;20403;-82
2021/12/09 09:27:32;;;;;;;15.75;4.30;;;;;;;5.74;100.00;97389.16;4918946;29;20376;-83
2021/12/09 09:29:58;;;;;;;15.65;4.07;;;;;;;5.72;100.00;97371.94;4919696;29;20062;-85
2021/12/09 09:32:48;;;;;;;14.52;5.57;;;;;;;5.90;100.00;97377.50;4902903;29;20032;-85
2021/12/09 09:35:14;;;;;;;18.92;7.82;;;;;;;5.64;100.00;97345.31;4747921;29;4139748;-84
2021/12/09 09:37:49;;;;;;;24.98;8.77;;;;;;;5.46;100.00;97357.16;4907109;29;20039;-86
2021/12/09 09:40:27;;;;;;;17.15;8.05;;;;;;;5.13;100.00;97342.41;4920872;29;20499;-83
2021/12/09 09:42:59;;;;;;;16.02;6.70;;;;;;;5.15;100.00;97328.19;4910823;29;20036;-83
2021/12/09 09:45:29;;;;;;;11.83;6.70;;;;;;;5.35;100.00;97355.19;4913382;29;20032;-83
2021/12/09 09:47:58;;;;;;;22.65;7.82;;;;;;;5.15;100.00;97330.00;4897425;29;20283;-84
2021/12/09 09:50:25;;;;;;;19.80;8.70;;;;;;;5.37;100.00;97374.00;4923388;29;20020;-85
2021/12/09 09:52:55;;;;;;;21.55;7.47;;;;;;;5.23;100.00;97365.41;4900017;29;20195;-85
2021/12/09 09:55:21;;;;;;;15.77;6.32;;;;;;;5.17;100.00;97364.41;4930392;29;20131;-83
2021/12/09 09:57:48;;;;;;;25.58;9.40;;;;;;;5.24;100.00;97390.44;4921707;29;20046;-85
2021/12/09 10:00:16;;;;;;;22.48;8.88;;;;;;;5.32;100.00;97398.03;4917376;29;20047;-83
2021/12/09 10:02:51;;;;;;;21.48;10.07;;;;;;;5.42;100.00;97408.84;4924965;29;20091;-85
2021/12/09 10:05:28;;;;;;;24.90;10.05;;;;;;;5.40;100.00;97384.81;4931896;29;20058;-84
2021/12/09 10:07:55;;;;;;;23.10;9.80;;;;;;;5.35;100.00;97383.81;4929279;29;20452;-83
2021/12/09 10:10:23;;;;;;;18.73;9.65;;;;;;;5.65;100.00;97418.00;4907874;29;20060;-83
2021/12/09 10:13:06;;;;;;;23.20;9.32;;;;;;;5.60;100.00;97409.22;4923203;29;20046;-84
2021/12/09 10:15:51;;;;;;;19.58;8.48;;;;;;;5.69;100.00;97407.97;4912215;29;20084;-85
2021/12/09 10:18:37;;;;;;;16.40;8.68;;;;;;;5.82;100.00;97435.81;4905119;29;20040;-84
2021/12/09 10:21:05;;;;;;;21.73;8.18;;;;;;;5.86;100.00;97424.78;4916185;29;20191;-84
2021/12/09 10:23:50;;;;;;;18.52;8.35;;;;;;;5.94;100.00;97434.16;4912716;29;20095;-83
2021/12/09 10:26:29;;;;;;;31.13;9.68;;;;;;;5.67;100.00;97436.03;4932034;29;20039;-85
2021/12/09 10:29:18;;;;;;;23.02;8.70;;;;;;;5.40;100.00;97391.81;4913596;29;20398;-83
2021/12/09 10:31:53;;;;;;;26.95;8.35;;;;;;;5.55;100.00;97410.63;4906928;29;20490;-83
2021/12/09 10:34:40;;;;;;;26.48;8.25;;;;;;;5.76;100.00;97429.63;4922075;29;20040;-85
2021/12/09 10:37:13;;;;;;;25.05;8.90;;;;;;;5.93;100.00;97422.16;4910426;29;20103;-84
2021/12/09 10:39:40;;;;;;;23.08;10.48;;;;;;;6.17;100.00;97429.53;4907460;29;20565;-84
2021/12/09 10:42:16;;;;;;;26.92;14.25;;;;;;;6.14;100.00;97420.31;4911202;29;20047;-83
2021/12/09 10:44:49;;;;;;;31.88;16.25;;;;;;;6.02;100.00;97417.56;4910057;29;20064;-84
2021/12/09 10:47:35;;;;;;;30.83;17.00;;;;;;;6.03;100.00;97392.31;4927707;29;20028;-85
2021/12/09 10:50:22;;;;;;;26.58;14.75;;;;;;;6.13;100.00;97411.72;4894173;29;20039;-84
2021/12/09 10:52:57;;;;;;;32.53;14.43;;;;;;;6.04;100.00;97425.19;4919562;29;20039;-83
2021/12/09 10:55:28;;;;;;;38.22;14.98;;;;;;;5.69;100.00;97372.34;4901450;29;20039;-84
2021/12/09 10:57:57;;;;;;;22.95;12.38;;;;;;;5.63;100.00;97367.16;4924657;29;20036;-83
2021/12/09 11:00:28;;;;;;;26.23;12.63;;;;;;;5.69;100.00;97397.56;4913633;29;20368;-85
2021/12/09 11:03:09;;;;;;;33.70;14.40;;;;;;;5.57;100.00;97374.78;4921619;29;20043;-83
2021/12/09 11:05:40;;;;;;;33.67;15.27;;;;;;;5.66;100.00;97374.53;4895717;29;20459;-83
2021/12/09 11:08:30;;;;;;;28.67;14.10;;;;;;;5.54;100.00;97369.97;4900083;29;20035;-84
2021/12/09 11:10:59;;;;;;;31.00;12.82;;;;;;;5.78;100.00;97403.34;4911121;29;20036;-85
2021/12/09 11:13:35;;;;;;;21.85;12.40;;;;;;;5.61;100.00;97379.56;4910967;29;20035;-85
2021/12/09 11:16:04;;;;;;;25.83;10.68;;;;;;;5.66;100.00;97400.56;4927172;29;20023;-84
2021/12/09 11:18:38;;;;;;;29.00;11.32;;;;;;;5.61;100.00;97401.22;4920946;29;20486;-85
2021/12/09 11:21:18;;;;;;;23.55;9.10;;;;;;;5.32;100.00;97374.59;4924745;29;20050;-84
2021/12/09 11:24:07;;;;;;;17.55;6.80;;;;;;;5.50;100.00;97394.81;4918016;29;20087;-83
2021/12/09 11:27:00;;;;;;;22.88;7.30;;;;;;;5.60;100.00;97396.19;4908336;29;20159;-82
2021/12/09 11:29:37;;;;;;;20.50;7.78;;;;;;;5.46;100.00;97370.19;4908993;29;20123;-84
2021/12/09 11:32:17;;;;;;;22.15;6.40;;;;;;;5.53;100.00;97368.38;4920093;29;20039;-85
2021/12/09 11:34:56;;;;;;;12.70;5.80;;;;;;;5.49;100.00;97356.75;4914350;29;20047;-83
2021/12/09 11:39:56;;;;;;;21.20;6.03;;;;;;;5.60;100.00;97396.19;4933690;29;20035;-84
2021/12/09 11:45:22;;;;;;;20.75;5.38;;;;;;;5.43;100.00;97373.19;4904899;29;20048;-84